Portada
METAR-TAF:

METAR-TAF

Aeroports :

Sukhothai, Tailàndia

latitud: 17-14-16N, longitud: 099-49-05E, altitud: 55 m

Observació

L'informe es va fer fa 9 hores i 51 minuts, a les 10:00 UTC
Vent 4 kt del Est/Sud-Est
Temperatura 33°C
Humitat 63%
Pressió 1007 hPa
Visibilitat 10 km o més
Escasses núvols a una alçada de 2500 ft

METAR: VTPO 211000Z 12004KT 9999 FEW025 33/25 Q1007 NOSIG

Hora: 02:51 (19:51 UTC)

Pronòstic

L'informe es va fer fa 2 hores i 51 minuts, a les 17:00 UTC
Pronòstic vàlid del 21 a les 18 UTC al 22 a les 18 UTC
Vent 5 kt del Est/Sud-Est
Visibilitat 10 km o més
Núvols disperses a una alçada de 2500 ft
Temporalment
l' 22 a les 06 UTC al 22 a les 12 UTC
Vent 15 kt amb direcció variable amb ràfegues de 30 kt
Visibilitat: 5000 m
Escasses núvols a una alçada de 2500 ft, Cumulonimbus.
Cel ennuvolat a una alçada de 2500 ft
tempesta, pluja

TAF: VTPO 211700Z 2118/2218 12005KT 9999 SCT025 TEMPO 2206/2212 VRB15G30KT 5000 TSRA FEW025CB BKN025

Observacions i pronòstics meteorològics de més de 4000 aeroports (METAR i TAF).

Les estacions disponibles són els punts grocs i vermells al mapa.

Posi el ratolí al punt desitjat per veure el nom de l'estació.

Feu clic per veure les observacions i els pronòstics meteorològics.

Per canviar el mapa: feu clic els botons verds amb una creu de color negre per apropar; al botó verd amb un guió per allunyar la imatge; o en les fletxes verdes per a mapes adjacents.


METAR-TAF: